Time;durP1;ratioP1;P1;durP2;ratioP2;P2;SDS_P1;SDS_P2;PMS_P1;PMS_P2;Temp;Humidity;BMP_temperature;BMP_pressure;BME280_temperature;BME280_humidity;BME280_pressure;Samples;Min_cycle;Max_cycle;Signal;HPM_P1;HPM_P2
2021/08/17 00:01:42;;;;;;;6.43;4.45;;;18.70;79.70;;;18.44;64.60;94561.72;5034808;28;20235;-87
2021/08/17 00:04:09;;;;;;;7.03;4.40;;;18.60;79.70;;;18.47;64.51;94560.41;5052468;28;20205;-88
2021/08/17 00:06:38;;;;;;;7.55;4.70;;;18.70;79.80;;;18.44;64.84;94553.75;5035870;28;20225;-88
2021/08/17 00:09:05;;;;;;;6.80;4.50;;;18.60;79.60;;;18.41;64.91;94556.91;5019280;28;20636;-88
2021/08/17 00:11:32;;;;;;;5.10;4.00;;;18.60;79.60;;;18.37;65.08;94547.81;5029599;28;20268;-88
2021/08/17 00:13:59;;;;;;;6.70;4.45;;;18.60;79.60;;;18.34;65.06;94543.81;5036193;28;20187;-88
2021/08/17 00:16:26;;;;;;;7.05;4.60;;;18.60;79.50;;;18.37;65.06;94564.56;5052240;28;20223;-87
2021/08/17 00:18:53;;;;;;;6.32;4.45;;;18.60;79.50;;;18.31;65.23;94554.97;5032211;28;20202;-88
2021/08/17 00:21:20;;;;;;;5.40;4.03;;;18.50;79.60;;;18.33;65.22;94558.13;5033670;28;20251;-88
2021/08/17 00:23:47;;;;;;;7.60;4.55;;;18.50;79.60;;;18.24;64.91;94547.16;5025549;28;20207;-88
2021/08/17 00:26:15;;;;;;;4.45;3.65;;;18.60;79.70;;;18.33;64.54;94558.13;5019068;28;20690;-88
2021/08/17 00:28:42;;;;;;;6.35;4.10;;;18.60;79.70;;;18.32;64.79;94569.84;5034724;28;20287;-88
2021/08/17 00:31:10;;;;;;;6.30;4.15;;;18.50;79.60;;;18.32;64.56;94561.06;5026715;28;20712;-87
2021/08/17 00:33:37;;;;;;;6.00;4.07;;;18.50;79.60;;;18.33;64.80;94573.28;5035898;28;20203;-87
2021/08/17 00:36:06;;;;;;;5.55;3.78;;;18.50;79.70;;;18.33;64.82;94560.00;5034528;28;20269;-88
2021/08/17 00:38:37;;;;;;;8.13;4.40;;;18.50;79.70;;;18.35;64.91;94576.50;5036038;28;20273;-87
2021/08/17 00:41:09;;;;;;;5.75;3.90;;;18.50;79.70;;;18.30;64.56;94569.28;5034725;28;20306;-88
2021/08/17 00:43:38;;;;;;;8.57;4.10;;;18.50;79.70;;;18.32;64.48;94572.50;5035608;28;20231;-87
2021/08/17 00:46:07;;;;;;;5.35;4.38;;;18.50;80.00;;;18.31;65.03;94578.84;5052243;28;20212;-87
2021/08/17 00:48:41;;;;;;;5.45;4.25;;;18.50;79.60;;;18.24;64.58;94572.94;5018871;28;20205;-88
2021/08/17 00:51:09;;;;;;;8.65;4.03;;;18.50;79.60;;;18.23;64.76;94584.59;5035373;28;20219;-88
2021/08/17 00:53:36;;;;;;;7.28;4.22;;;18.40;79.50;;;18.21;64.66;94586.69;5014600;28;20202;-88
2021/08/17 00:56:05;;;;;;;4.80;4.30;;;18.40;79.40;;;18.16;65.15;94573.34;5042012;28;20314;-88
2021/08/17 00:58:33;;;;;;;6.93;4.70;;;18.50;79.70;;;18.13;64.71;94584.47;5035514;28;20205;-88
2021/08/17 01:01:02;;;;;;;5.05;4.25;;;18.40;79.50;;;18.04;65.25;94568.16;5035139;28;20232;-88
2021/08/17 01:03:30;;;;;;;7.53;5.00;;;18.40;79.60;;;18.02;65.08;94563.13;5019354;28;20223;-88
2021/08/17 01:06:01;;;;;;;7.97;4.85;;;18.40;79.70;;;17.98;65.55;94558.53;5019370;28;20314;-89
2021/08/17 01:08:28;;;;;;;5.57;4.40;;;18.40;79.80;;;17.91;65.90;94561.38;5036357;28;20204;-87
2021/08/17 01:10:56;;;;;;;7.55;4.93;;;18.20;79.60;;;17.90;65.49;94570.38;5016928;28;20223;-87
2021/08/17 01:13:26;;;;;;;7.03;5.05;;;18.20;79.70;;;17.86;65.66;94579.88;5035017;28;20188;-88
2021/08/17 01:15:54;;;;;;;8.90;4.68;;;18.20;80.70;;;17.82;65.71;94571.59;5053341;28;20281;-88
2021/08/17 01:18:22;;;;;;;6.32;4.40;;;18.10;79.90;;;17.84;65.80;94574.00;5035067;28;20249;-88
2021/08/17 01:20:54;;;;;;;7.20;5.00;;;18.10;80.00;;;17.80;65.90;94583.47;5051682;28;20660;-87
2021/08/17 01:23:27;;;;;;;6.20;4.85;;;18.20;80.40;;;17.71;67.09;94585.75;5047491;28;20227;-87
2021/08/17 01:25:54;;;;;;;5.80;4.93;;;18.10;80.30;;;17.59;67.17;94586.66;5015876;28;20293;-87
2021/08/17 01:28:21;;;;;;;6.57;4.38;;;18.00;80.30;;;17.49;67.33;94599.78;5016673;28;20255;-86
2021/08/17 01:31:00;;;;;;;4.55;3.60;;;18.00;80.30;;;17.36;67.17;94574.41;5028514;28;20263;-86
2021/08/17 01:33:28;;;;;;;4.82;2.70;;;17.80;80.20;;;17.27;67.15;94599.69;5039067;28;20671;-86
2021/08/17 01:35:57;;;;;;;3.58;2.00;;;17.70;80.10;;;17.17;67.06;94600.34;5022030;28;20223;-86
2021/08/17 01:38:24;;;;;;;2.80;2.22;;;17.70;80.20;;;17.09;67.41;94622.75;5018451;28;20295;-87
2021/08/17 01:40:51;;;;;;;1.40;1.30;;;17.60;80.00;;;16.94;67.16;94623.31;5024594;28;20208;-86
2021/08/17 01:43:20;;;;;;;1.40;1.30;;;17.50;79.90;;;16.83;67.57;94655.91;5018879;28;20238;-86
2021/08/17 01:45:58;;;;;;;1.13;1.13;;;17.40;80.20;;;16.69;66.90;94651.97;5018610;28;20222;-85
2021/08/17 01:48:29;;;;;;;1.20;1.10;;;17.30;80.40;;;16.58;67.14;94658.91;5035026;28;20211;-85
2021/08/17 01:50:56;;;;;;;1.45;0.80;;;17.20;80.00;;;16.44;66.91;94682.19;5016381;28;20251;-85
2021/08/17 01:53:31;;;;;;;0.80;0.80;;;17.10;79.70;;;16.24;66.66;94707.19;5050178;28;20670;-86
2021/08/17 01:56:13;;;;;;;0.80;0.80;;;16.90;79.50;;;16.09;66.67;94714.81;5038328;28;20218;-87
2021/08/17 01:58:43;;;;;;;1.42;0.88;;;16.80;79.40;;;15.93;66.67;94722.41;5021889;28;20221;-86
2021/08/17 02:01:12;;;;;;;0.90;0.90;;;16.60;79.30;;;15.80;66.80;94730.53;5037847;28;20226;-85
2021/08/17 02:03:40;;;;;;;0.77;0.77;;;16.50;79.30;;;15.66;66.70;94740.50;5054312;28;20219;-85
2021/08/17 02:06:09;;;;;;;0.98;0.82;;;16.30;79.10;;;15.55;66.54;94743.94;5035720;28;20247;-86
2021/08/17 02:08:37;;;;;;;2.42;1.20;;;16.30;79.10;;;15.39;66.34;94751.47;5018340;28;20196;-86
2021/08/17 02:11:04;;;;;;;1.02;1.00;;;16.20;79.00;;;15.22;66.61;94743.38;5034668;28;20270;-87
2021/08/17 02:13:33;;;;;;;1.33;1.23;;;16.00;78.90;;;15.11;66.77;94746.78;5018241;28;20200;-87
2021/08/17 02:16:01;;;;;;;1.30;1.20;;;15.80;79.00;;;14.98;66.74;94742.50;5009797;28;20705;-87
2021/08/17 02:18:32;;;;;;;1.85;1.50;;;15.70;79.20;;;14.89;66.94;94748.09;5018418;28;20199;-86
2021/08/17 02:21:00;;;;;;;1.20;1.10;;;15.60;79.30;;;14.82;66.71;94750.00;5034294;28;20266;-87
2021/08/17 02:23:28;;;;;;;1.50;1.13;;;15.50;79.20;;;14.73;66.83;94752.16;5018076;28;20252;-86
2021/08/17 02:25:55;;;;;;;1.98;1.10;;;15.40;79.40;;;14.64;66.66;94752.63;5024959;28;20218;-87
2021/08/17 02:28:22;;;;;;;2.33;1.38;;;15.30;79.50;;;14.61;67.58;94761.00;5021019;28;20290;-86
2021/08/17 02:30:52;;;;;;;3.85;1.30;;;15.20;79.70;;;14.56;67.64;94761.63;5021066;28;20227;-87
2021/08/17 02:33:20;;;;;;;1.33;1.17;;;15.10;79.80;;;14.51;67.39;94764.97;5037382;28;20219;-86
2021/08/17 02:35:47;;;;;;;1.20;1.10;;;15.10;79.90;;;14.46;67.65;94761.34;5017549;28;20222;-87
2021/08/17 02:38:14;;;;;;;1.88;1.40;;;15.00;79.90;;;14.41;67.70;94762.00;5017658;28;20199;-86
2021/08/17 02:40:41;;;;;;;1.83;1.30;;;14.90;80.00;;;14.33;67.38;94754.38;5034288;28;20220;-86
2021/08/17 02:43:09;;;;;;;2.13;1.30;;;14.90;80.00;;;14.36;67.52;94757.38;5033820;28;20274;-87
2021/08/17 02:45:37;;;;;;;1.40;1.30;;;14.90;80.20;;;14.35;67.46;94761.03;5018430;28;20318;-87
2021/08/17 02:48:05;;;;;;;2.15;1.38;;;14.80;80.30;;;14.31;67.84;94762.53;5020327;28;20204;-86
2021/08/17 02:50:32;;;;;;;1.52;1.40;;;14.80;80.40;;;14.31;68.06;94765.16;5038218;28;20251;-87
2021/08/17 02:52:59;;;;;;;2.45;1.13;;;14.80;80.60;;;14.27;67.94;94758.72;5033756;28;20287;-87
2021/08/17 02:55:26;;;;;;;3.20;1.00;;;14.80;80.70;;;14.28;67.78;94760.34;5000888;28;20251;-86
2021/08/17 02:58:03;;;;;;;1.45;1.30;;;14.70;80.70;;;14.29;67.93;94761.91;5017463;28;20196;-86
2021/08/17 03:00:32;;;;;;;1.92;1.30;;;14.70;80.70;;;14.30;67.76;94765.38;5028683;28;20219;-86
2021/08/17 03:02:59;;;;;;;2.65;1.20;;;14.70;80.70;;;14.25;68.04;94761.56;5026019;28;20585;-86
2021/08/17 03:05:27;;;;;;;1.90;1.50;;;14.70;80.60;;;14.27;68.30;94771.09;5026347;28;20274;-86
2021/08/17 03:08:03;;;;;;;1.50;1.40;;;14.70;80.70;;;14.21;68.41;94770.94;5030688;28;20206;-87
2021/08/17 03:10:36;;;;;;;1.55;1.25;;;14.70;81.00;;;14.24;68.29;94769.69;5019159;28;20700;-86
2021/08/17 03:13:05;;;;;;;1.35;1.15;;;14.70;81.00;;;14.21;69.08;94772.78;5044363;28;20286;-87
2021/08/17 03:15:34;;;;;;;1.30;1.20;;;14.70;81.10;;;14.20;68.68;94773.81;5036946;28;20223;-86
2021/08/17 03:18:03;;;;;;;1.30;1.15;;;14.70;81.10;;;14.24;68.40;94780.25;5029597;28;20291;-87
2021/08/17 03:20:32;;;;;;;2.17;0.93;;;14.60;81.00;;;14.26;68.11;94783.47;5033230;28;20240;-86
2021/08/17 03:23:00;;;;;;;1.83;1.40;;;14.70;81.10;;;14.29;68.48;94784.88;5035515;28;20255;-87
2021/08/17 03:25:28;;;;;;;2.70;1.40;;;14.60;81.30;;;14.32;68.73;94784.41;5038886;28;20215;-86
2021/08/17 03:27:56;;;;;;;1.42;1.30;;;14.70;81.40;;;14.37;68.18;94790.66;5052087;28;20222;-87
2021/08/17 03:30:26;;;;;;;1.23;1.13;;;14.80;81.40;;;14.41;68.00;94785.75;5043883;28;20222;-87
2021/08/17 03:32:53;;;;;;;2.28;1.20;;;14.70;81.20;;;14.43;67.96;94791.63;5035891;28;20208;-87
2021/08/17 03:35:21;;;;;;;1.40;1.30;;;14.80;81.30;;;14.44;68.10;94792.44;5044851;28;20212;-87
2021/08/17 03:37:48;;;;;;;1.70;1.52;;;14.70;81.30;;;14.44;68.15;94795.06;5043150;28;20213;-87
2021/08/17 03:40:19;;;;;;;2.67;1.30;;;14.70;81.20;;;14.45;68.62;94792.19;5038758;28;20306;-87
2021/08/17 03:42:47;;;;;;;1.73;1.50;;;14.70;81.30;;;14.48;68.54;94804.19;5034156;28;20245;-87
2021/08/17 03:45:19;;;;;;;1.65;1.20;;;14.80;81.40;;;14.51;68.20;94807.19;5014709;28;20212;-87
2021/08/17 03:47:48;;;;;;;2.38;1.50;;;14.80;81.50;;;14.49;68.48;94806.59;5018140;28;20275;-87
2021/08/17 03:50:17;;;;;;;2.22;1.52;;;14.80;81.40;;;14.47;68.55;94819.19;5017851;28;20219;-88
2021/08/17 03:52:45;;;;;;;2.33;1.60;;;14.90;81.50;;;14.50;68.16;94823.22;5034048;28;20195;-88
2021/08/17 03:55:18;;;;;;;2.03;1.65;;;14.80;81.40;;;14.48;68.48;94814.72;5035177;28;20211;-87
2021/08/17 03:57:45;;;;;;;1.60;1.42;;;14.80;81.30;;;14.48;68.33;94820.81;5051226;28;20193;-89
2021/08/17 04:00:17;;;;;;;2.05;1.70;;;14.80;81.20;;;14.46;68.03;94822.06;5051077;28;20788;-88
2021/08/17 04:02:44;;;;;;;1.67;1.55;;;14.80;81.10;;;14.41;68.20;94828.81;5040416;28;20215;-87
2021/08/17 04:05:15;;;;;;;4.35;1.90;;;14.80;80.90;;;14.35;68.03;94831.50;5050567;28;20215;-88
2021/08/17 04:07:42;;;;;;;2.22;1.67;;;14.80;80.80;;;14.31;67.93;94836.41;5035343;28;20195;-88
2021/08/17 04:10:10;;;;;;;1.83;1.70;;;14.70;80.70;;;14.28;67.74;94828.94;5048570;28;20208;-88
2021/08/17 04:12:37;;;;;;;1.95;1.50;;;14.70;80.70;;;14.23;67.94;94832.22;5015777;28;20492;-88
2021/08/17 04:15:06;;;;;;;1.98;1.58;;;14.70;80.70;;;14.20;67.81;94839.75;5009318;28;20298;-87
2021/08/17 04:17:34;;;;;;;2.58;1.75;;;14.70;80.70;;;14.19;67.84;94848.69;5052275;28;20222;-88
2021/08/17 04:20:03;;;;;;;1.80;1.50;;;14.70;80.70;;;14.16;68.28;94851.72;5031975;28;20693;-87
2021/08/17 04:22:30;;;;;;;2.28;1.70;;;14.60;81.70;;;14.03;68.23;94842.13;5015920;28;20196;-88
2021/08/17 04:24:57;;;;;;;2.67;1.85;;;14.50;80.80;;;14.05;68.25;94859.34;5020921;28;20208;-88
2021/08/17 04:27:25;;;;;;;3.97;1.90;;;14.60;80.90;;;14.07;68.25;94859.94;5035871;28;20191;-87
2021/08/17 04:29:52;;;;;;;2.50;1.90;;;14.50;80.90;;;14.08;68.35;94863.38;5019075;28;20647;-87
2021/08/17 04:32:19;;;;;;;2.17;1.65;;;14.50;81.10;;;14.04;68.29;94862.19;5052568;28;20575;-87
2021/08/17 04:34:46;;;;;;;2.00;1.70;;;14.50;81.00;;;14.04;67.92;94872.75;5018719;28;20220;-86
2021/08/17 04:37:14;;;;;;;2.83;1.98;;;14.40;81.00;;;14.02;68.37;94887.97;5040863;28;20234;-87
2021/08/17 04:39:41;;;;;;;2.97;2.00;;;14.40;81.00;;;13.99;68.21;94869.91;5035809;28;20262;-87
2021/08/17 04:42:08;;;;;;;2.33;1.90;;;14.40;81.00;;;13.99;68.03;94878.66;5018758;28;20229;-87
2021/08/17 04:44:35;;;;;;;3.15;1.77;;;14.40;81.10;;;13.99;68.07;94883.94;5018525;28;20250;-87
2021/08/17 04:47:03;;;;;;;2.95;2.00;;;14.40;81.10;;;13.89;68.07;94873.84;5035403;28;20206;-87
2021/08/17 04:49:31;;;;;;;3.05;1.90;;;14.40;81.00;;;13.92;68.30;94886.59;5035470;28;20296;-87
2021/08/17 04:51:59;;;;;;;2.00;1.80;;;14.30;81.00;;;13.94;68.11;94899.59;5051669;28;20665;-86
2021/08/17 04:54:26;;;;;;;2.60;2.00;;;14.30;81.10;;;13.96;68.00;94904.63;5051688;28;20227;-87
2021/08/17 04:56:53;;;;;;;2.30;1.90;;;14.30;81.20;;;13.94;68.44;94912.78;5019149;28;20214;-86
2021/08/17 04:59:21;;;;;;;2.85;1.77;;;14.30;81.30;;;13.92;68.33;94905.06;5019152;28;20253;-87
2021/08/17 05:01:49;;;;;;;4.65;2.00;;;14.30;81.30;;;14.02;68.11;94909.06;5027470;28;20262;-86
2021/08/17 05:04:17;;;;;;;2.72;2.00;;;14.40;81.40;;;14.04;68.07;94904.38;5035040;28;20237;-87
2021/08/17 05:06:44;;;;;;;2.15;1.70;;;14.30;81.30;;;14.04;68.16;94901.75;5019502;28;20639;-87
2021/08/17 05:09:11;;;;;;;2.55;1.83;;;14.40;81.40;;;14.13;68.58;94915.47;5036077;28;20200;-85
2021/08/17 05:11:38;;;;;;;2.15;1.95;;;14.40;81.40;;;14.15;67.64;94924.00;5019300;28;20222;-87
2021/08/17 05:14:07;;;;;;;3.58;2.10;;;14.40;81.30;;;14.14;67.89;94914.47;5019540;28;20227;-86
2021/08/17 05:16:35;;;;;;;4.05;2.10;;;14.50;81.20;;;14.15;68.04;94916.09;5019121;28;20220;-86
2021/08/17 05:19:02;;;;;;;5.47;2.35;;;14.50;81.10;;;14.15;67.82;94919.53;5020268;28;20197;-87
2021/08/17 05:21:29;;;;;;;2.85;2.47;;;14.50;81.10;;;14.12;67.50;94922.56;5018836;28;20278;-83
2021/08/17 05:23:57;;;;;;;2.63;2.05;;;14.50;81.00;;;14.15;67.62;94927.44;5018176;28;20319;-82
2021/08/17 05:26:25;;;;;;;2.95;1.98;;;14.50;81.00;;;14.14;67.54;94923.16;5018416;28;20231;-84
2021/08/17 05:28:53;;;;;;;4.68;2.33;;;14.50;81.00;;;14.19;67.45;94925.19;5041851;28;20200;-84
2021/08/17 05:31:20;;;;;;;2.65;2.20;;;14.50;80.90;;;14.19;67.63;94925.19;5034931;28;20296;-84
2021/08/17 05:33:47;;;;;;;3.70;2.30;;;14.50;80.80;;;14.17;67.24;94919.28;5018827;28;20200;-82
2021/08/17 05:36:14;;;;;;;5.85;2.33;;;14.60;81.00;;;14.20;67.02;94930.22;5034380;28;20215;-84
2021/08/17 05:38:41;;;;;;;3.25;2.13;;;14.60;80.80;;;14.23;67.19;94944.81;5046101;28;20192;-83
2021/08/17 05:41:09;;;;;;;2.90;2.33;;;14.50;80.70;;;14.25;67.20;94950.69;5034793;28;20633;-83
2021/08/17 05:43:36;;;;;;;2.92;2.10;;;14.50;80.80;;;14.26;67.48;94949.69;5033943;28;20689;-84
2021/08/17 05:46:05;;;;;;;2.78;2.30;;;14.50;80.90;;;14.32;67.43;94956.75;5035264;28;20295;-84
2021/08/17 05:48:39;;;;;;;3.90;2.30;;;14.60;81.10;;;14.44;67.29;94971.88;5036387;28;20719;-83
2021/08/17 05:51:07;;;;;;;3.25;2.50;;;14.60;81.30;;;14.56;67.44;94970.97;5045159;28;20220;-82
2021/08/17 05:53:34;;;;;;;4.88;2.30;;;14.70;81.40;;;14.62;67.20;94971.13;5035879;28;20269;-84
2021/08/17 05:56:02;;;;;;;3.38;2.15;;;14.80;81.30;;;14.64;67.18;94971.72;5017724;28;20239;-84
2021/08/17 05:58:29;;;;;;;4.38;2.55;;;14.80;81.20;;;14.67;67.15;94966.88;5018006;28;20238;-83
2021/08/17 06:00:56;;;;;;;3.13;2.35;;;14.80;81.10;;;14.78;67.05;94970.63;5020573;28;20226;-84
2021/08/17 06:03:43;;;;;;;6.55;2.65;;;14.90;81.30;;;14.75;66.61;94960.50;5054504;28;20714;-83
2021/08/17 06:06:11;;;;;;;3.88;2.50;;;15.00;81.10;;;14.88;66.33;94972.78;5037600;28;20302;-83
2021/08/17 06:08:38;;;;;;;3.42;2.58;;;15.00;80.90;;;14.85;66.16;94974.00;5054224;28;20211;-83
2021/08/17 06:11:05;;;;;;;2.97;2.10;;;15.10;80.80;;;14.87;66.41;94976.44;5019519;28;20224;-84
2021/08/17 06:13:33;;;;;;;4.60;2.47;;;15.10;80.60;;;14.86;66.52;94975.63;5018285;28;20191;-83
2021/08/17 06:16:00;;;;;;;3.92;2.60;;;15.10;80.50;;;14.83;66.47;94980.53;5044982;28;20216;-83
2021/08/17 06:18:27;;;;;;;6.05;2.70;;;15.20;80.40;;;14.86;66.19;94994.09;5017337;28;20298;-83
2021/08/17 06:20:54;;;;;;;5.10;2.90;;;15.20;80.40;;;14.86;65.95;94990.66;5017623;28;20212;-83
2021/08/17 06:23:22;;;;;;;7.05;3.10;;;15.20;80.20;;;14.82;65.45;95003.50;5001430;28;20228;-83
2021/08/17 06:25:49;;;;;;;2.90;2.50;;;15.20;79.80;;;14.70;65.50;94995.47;5017314;28;20239;-83
2021/08/17 06:28:16;;;;;;;5.75;2.35;;;15.20;79.70;;;14.72;65.81;95000.50;5017027;28;20195;-83
2021/08/17 06:30:43;;;;;;;3.88;2.53;;;15.20;79.60;;;14.65;65.66;94997.94;5028098;28;20682;-84
2021/08/17 06:33:11;;;;;;;5.40;3.10;;;15.10;79.40;;;14.60;65.22;94989.84;5020578;28;20202;-84
2021/08/17 06:35:38;;;;;;;4.78;3.00;;;15.10;79.30;;;14.50;65.48;94992.94;5053423;28;20270;-83
2021/08/17 06:38:05;;;;;;;7.30;3.45;;;15.00;79.20;;;14.46;65.14;95010.22;5036778;28;20274;-83
2021/08/17 06:40:33;;;;;;;4.85;2.95;;;15.00;78.90;;;14.41;65.27;95008.25;5032671;28;20315;-82
2021/08/17 06:43:00;;;;;;;5.32;3.13;;;14.90;78.90;;;14.36;65.25;95008.06;5000329;28;20608;-82
2021/08/17 06:45:27;;;;;;;5.25;3.42;;;14.80;78.90;;;14.29;65.24;94996.72;5016606;28;20736;-82
2021/08/17 06:47:57;;;;;;;6.50;3.38;;;14.80;78.90;;;14.26;65.45;95005.09;5032865;28;20287;-82
2021/08/17 06:50:40;;;;;;;4.97;3.30;;;14.70;78.70;;;14.18;65.48;95007.97;5033483;28;20223;-82
2021/08/17 06:53:07;;;;;;;4.85;3.30;;;14.70;78.90;;;14.20;65.58;95003.28;5042393;28;20283;-82
2021/08/17 06:55:34;;;;;;;5.63;3.40;;;14.70;79.30;;;14.26;65.89;95005.09;5033143;28;20212;-82
2021/08/17 06:58:04;;;;;;;4.70;3.10;;;14.60;79.50;;;14.33;65.88;95005.03;5012072;28;20196;-83
2021/08/17 07:00:32;;;;;;;5.18;3.28;;;14.70;79.80;;;14.40;65.76;95013.72;5029697;28;20557;-84
2021/08/17 07:02:59;;;;;;;6.15;3.55;;;14.60;79.80;;;14.47;65.06;95008.41;5035123;28;20223;-84
2021/08/17 07:05:29;;;;;;;5.03;3.03;;;14.70;79.80;;;14.54;65.57;95019.72;5050992;28;20227;-83
2021/08/17 07:07:56;;;;;;;5.13;3.50;;;14.80;80.00;;;14.60;65.30;95015.41;5067819;28;20191;-83
2021/08/17 07:10:24;;;;;;;4.82;3.38;;;14.80;80.00;;;14.72;65.81;95005.78;5034293;28;20219;-84
2021/08/17 07:13:11;;;;;;;6.22;3.90;;;14.80;80.20;;;14.85;65.31;95015.44;5032386;28;20283;-83
2021/08/17 07:15:41;;;;;;;5.03;3.58;;;14.90;80.00;;;14.95;64.95;95005.22;5019882;28;20212;-84
2021/08/17 07:18:09;;;;;;;6.13;3.63;;;15.10;80.00;;;15.00;65.03;95015.13;5019265;28;20646;-83
2021/08/17 07:20:40;;;;;;;4.57;3.13;;;15.10;80.90;;;15.08;64.05;95011.41;5003332;28;20600;-84
2021/08/17 07:23:07;;;;;;;6.28;3.80;;;15.20;79.40;;;15.21;64.03;95021.84;5014717;28;20188;-83
2021/08/17 07:25:35;;;;;;;4.63;3.50;;;15.20;79.70;;;15.32;64.24;95020.31;5024545;28;20215;-83
2021/08/17 07:28:04;;;;;;;6.47;3.38;;;15.30;79.70;;;15.41;63.85;95029.56;5014433;28;20204;-83
2021/08/17 07:30:32;;;;;;;5.50;3.67;;;15.40;79.40;;;15.53;63.44;95030.47;5014231;28;20234;-83
2021/08/17 07:32:59;;;;;;;5.65;3.28;;;15.50;79.20;;;15.64;63.26;95028.13;5015947;28;20203;-83
2021/08/17 07:35:27;;;;;;;4.95;3.35;;;15.60;78.90;;;15.77;62.20;95022.69;5015465;28;20304;-83
2021/08/17 07:37:55;;;;;;;4.15;3.00;;;15.70;78.60;;;15.84;62.50;95028.72;5027570;28;20296;-83
2021/08/17 07:40:23;;;;;;;4.07;3.20;;;15.80;78.70;;;15.91;59.96;95033.13;5030193;28;20222;-83
2021/08/17 07:42:51;;;;;;;5.07;3.47;;;15.90;77.70;;;15.95;60.10;95023.72;5030728;28;20204;-83
2021/08/17 07:45:20;;;;;;;5.18;3.28;;;16.00;76.90;;;15.99;59.82;95020.41;5030487;28;20664;-83
2021/08/17 07:48:01;;;;;;;6.03;3.25;;;16.00;77.30;;;16.22;60.06;95032.13;5029140;28;20196;-82
2021/08/17 07:50:28;;;;;;;3.95;3.08;;;16.10;77.10;;;16.31;58.55;95043.22;5030747;28;20227;-84
2021/08/17 07:52:56;;;;;;;4.25;3.15;;;16.20;76.20;;;16.38;59.60;95048.41;5030257;28;20287;-83
2021/08/17 07:55:23;;;;;;;4.13;2.80;;;16.40;76.80;;;16.38;58.36;95040.47;5042285;28;20216;-83
2021/08/17 07:57:50;;;;;;;3.42;3.00;;;16.40;76.20;;;16.38;58.52;95045.75;5043956;28;20211;-82
2021/08/17 08:00:17;;;;;;;4.40;2.90;;;16.40;75.60;;;16.32;58.54;95042.97;5025160;28;20299;-83
2021/08/17 08:02:44;;;;;;;4.60;2.90;;;16.50;75.60;;;16.41;59.35;95054.06;5027466;28;20187;-83
2021/08/17 08:05:11;;;;;;;3.70;2.78;;;16.50;75.80;;;16.49;58.65;95055.59;5010330;28;20595;-83
2021/08/17 08:07:38;;;;;;;4.15;3.03;;;16.50;75.70;;;16.46;57.65;95062.13;5007797;28;20283;-82
2021/08/17 08:10:06;;;;;;;4.40;3.00;;;16.60;75.00;;;16.50;59.03;95062.47;5016437;28;20208;-82
2021/08/17 08:12:33;;;;;;;3.72;3.30;;;16.60;75.40;;;16.54;58.08;95062.84;5042469;28;20294;-83
2021/08/17 08:15:05;;;;;;;5.05;3.15;;;16.60;75.00;;;16.60;58.52;95072.53;5025273;28;20222;-83
2021/08/17 08:17:32;;;;;;;3.80;2.78;;;16.70;75.10;;;16.72;59.11;95060.16;5017973;28;20238;-82
2021/08/17 08:20:00;;;;;;;4.38;2.80;;;16.70;75.80;;;16.91;58.93;95058.22;5040353;28;20223;-83
2021/08/17 08:22:27;;;;;;;4.45;2.92;;;16.80;75.80;;;17.10;56.93;95068.75;5009577;28;20203;-82
2021/08/17 08:24:54;;;;;;;4.00;3.00;;;17.00;75.30;;;17.19;56.63;95071.91;5025953;28;20234;-82
2021/08/17 08:27:21;;;;;;;3.63;2.70;;;17.00;75.00;;;17.23;56.17;95079.13;5035791;28;20202;-83
2021/08/17 08:29:48;;;;;;;4.53;2.92;;;17.10;75.00;;;17.28;56.96;95079.28;5041083;28;20227;-84
2021/08/17 08:32:16;;;;;;;3.92;2.72;;;17.20;75.00;;;17.28;55.47;95078.44;5014732;28;20210;-84
2021/08/17 08:34:43;;;;;;;4.68;2.80;;;17.30;74.00;;;17.26;56.63;95069.94;5015411;28;20202;-83
2021/08/17 08:37:10;;;;;;;3.20;2.70;;;17.40;73.80;;;17.13;56.82;95069.09;5015792;28;20200;-83
2021/08/17 08:39:39;;;;;;;3.05;2.67;;;17.40;73.60;;;17.15;57.09;95081.31;5036231;28;20213;-84
2021/08/17 08:42:11;;;;;;;4.80;3.13;;;17.30;73.70;;;17.17;55.82;95074.75;5019195;28;20207;-84
2021/08/17 08:44:40;;;;;;;3.38;2.95;;;17.40;74.50;;;17.25;57.10;95073.63;5035626;28;20643;-84
2021/08/17 08:47:11;;;;;;;6.63;3.25;;;17.40;73.60;;;17.32;56.86;95073.50;5030393;28;20200;-83
2021/08/17 08:49:42;;;;;;;4.22;2.88;;;17.40;73.90;;;17.41;56.65;95072.13;5039182;28;20203;-83
2021/08/17 08:52:09;;;;;;;6.05;3.15;;;17.40;73.50;;;17.50;56.67;95073.38;5038873;28;20214;-83
2021/08/17 08:54:36;;;;;;;3.92;2.63;;;17.50;74.20;;;17.63;55.60;95084.81;5038752;28;20752;-83
2021/08/17 08:57:04;;;;;;;4.82;2.95;;;17.50;73.80;;;17.72;56.95;95075.44;5036712;28;20314;-84
2021/08/17 08:59:32;;;;;;;5.72;3.22;;;17.60;74.10;;;17.73;55.47;95079.72;5043809;28;20215;-83
2021/08/17 09:02:14;;;;;;;4.70;3.20;;;17.70;73.10;;;17.79;55.66;95067.38;5018791;28;20219;-83
2021/08/17 09:04:54;;;;;;;4.78;3.15;;;17.80;73.20;;;17.84;53.19;95075.44;5018772;28;20246;-83
2021/08/17 09:07:46;;;;;;;4.85;3.13;;;17.80;72.10;;;17.97;54.47;95080.53;5018936;28;20200;-83
2021/08/17 09:10:21;;;;;;;4.60;3.35;;;17.90;72.50;;;18.12;54.51;95073.91;5019601;28;20335;-83
2021/08/17 09:12:54;;;;;;;5.35;3.20;;;17.90;72.70;;;18.33;55.12;95083.88;5018661;28;20749;-83
2021/08/17 09:15:31;;;;;;;4.72;3.20;;;18.00;72.80;;;18.49;55.07;95082.34;5050083;28;20224;-83
2021/08/17 09:18:04;;;;;;;3.63;2.90;;;18.20;72.60;;;18.56;53.92;95088.28;5035036;28;20196;-83
2021/08/17 09:20:42;;;;;;;4.00;3.33;;;18.40;72.00;;;18.71;53.87;95097.59;5034855;28;20266;-84
2021/08/17 09:23:38;;;;;;;3.25;2.70;;;18.40;71.70;;;18.78;54.04;95087.63;5035063;28;20199;-84
2021/08/17 09:26:26;;;;;;;3.53;3.08;;;18.50;72.50;;;18.85;52.63;95088.28;5038625;28;20256;-84
2021/08/17 09:29:00;;;;;;;4.63;3.15;;;18.70;71.30;;;18.85;51.89;95077.66;5019091;28;20430;-83
2021/08/17 09:31:35;;;;;;;4.15;2.92;;;18.70;70.30;;;18.98;51.63;95083.72;5018023;28;20215;-82
2021/08/17 09:34:03;;;;;;;3.80;3.03;;;18.80;70.30;;;19.04;51.79;95093.38;5034775;28;20278;-83
2021/08/17 09:36:40;;;;;;;3.45;3.00;;;18.80;70.60;;;19.09;53.48;95082.88;5041022;28;20224;-83
2021/08/17 09:39:08;;;;;;;4.78;3.10;;;18.90;71.00;;;19.09;50.02;95090.00;5018041;28;20223;-82
2021/08/17 09:41:36;;;;;;;3.47;2.72;;;19.00;69.20;;;19.20;51.35;95081.19;5049482;28;20290;-84
2021/08/17 09:44:07;;;;;;;4.22;3.10;;;19.00;69.90;;;19.36;51.51;95085.66;5035718;28;20298;-83
2021/08/17 09:46:40;;;;;;;3.90;2.97;;;19.10;70.40;;;19.52;51.25;95089.38;5041891;28;20302;-83
2021/08/17 09:49:27;;;;;;;3.50;3.15;;;19.20;69.90;;;19.60;50.93;95090.78;5035867;28;20226;-83
2021/08/17 09:51:57;;;;;;;4.18;3.17;;;19.30;69.60;;;19.58;49.84;95094.75;5033462;28;20295;-84
2021/08/17 09:54:27;;;;;;;5.38;3.38;;;19.40;69.40;;;19.55;51.10;95097.91;5017392;28;20222;-83
2021/08/17 09:57:01;;;;;;;4.80;3.10;;;19.40;69.80;;;19.57;50.21;95101.94;5016397;28;20208;-84
2021/08/17 09:59:31;;;;;;;4.40;3.20;;;19.50;68.70;;;19.57;49.77;95088.63;5028024;28;20646;-83
2021/08/17 10:02:00;;;;;;;4.25;3.28;;;19.50;67.60;;;19.52;46.78;95113.31;5034472;28;20223;-83
2021/08/17 10:04:28;;;;;;;4.30;3.10;;;19.60;66.60;;;19.39;48.82;95095.00;5017362;28;20228;-84
2021/08/17 10:06:59;;;;;;;3.33;2.88;;;19.50;66.90;;;19.28;47.71;95085.28;5005759;28;20716;-84
2021/08/17 10:09:29;;;;;;;4.55;3.53;;;19.50;66.20;;;19.20;48.14;95097.94;5032657;28;20199;-83
2021/08/17 10:12:00;;;;;;;4.65;3.30;;;19.40;66.20;;;19.21;48.98;95096.06;5034554;28;20199;-84
2021/08/17 10:14:29;;;;;;;4.30;3.28;;;19.40;66.90;;;19.27;49.39;95086.31;5031485;28;20228;-84
2021/08/17 10:16:57;;;;;;;3.53;3.00;;;19.40;67.60;;;19.41;49.94;95094.75;5011325;28;20298;-84
2021/08/17 10:19:29;;;;;;;3.33;3.03;;;19.40;67.70;;;19.51;50.64;95085.09;5035045;28;20256;-85
2021/08/17 10:21:59;;;;;;;3.88;3.28;;;19.40;68.00;;;19.60;48.75;95092.66;5018055;28;20283;-83
2021/08/17 10:24:40;;;;;;;6.35;3.47;;;19.50;67.40;;;19.48;47.54;95090.09;5050488;28;20713;-83
2021/08/17 10:27:33;;;;;;;4.95;3.38;;;19.50;66.30;;;19.33;46.50;95086.16;5035112;28;20249;-84
2021/08/17 10:30:20;;;;;;;5.78;3.10;;;19.50;65.50;;;19.23;48.83;95090.53;5034596;28;20681;-83